Nearby METAR Reports

 

KSEE - San Diego/Santee, California, USA
Distance from station: E 4mi, 6km
Updated: Sat, 29-Apr-2017 5:47pm PDT
Clear
Clear
 Wind from W
Wind: W 14 mph , 22 km/h
Temperature: 77°F , 25°C
Dew Point: 19°F , -7°C
Humidity: 11%
Barometer: 29.97 inHg , 1014.9 hPa
Clouds: Clear
Visibility: 10 miles , 16 km
2017/04/30 00:47 KSEE 300047Z 28012KT 10SM SKC 25/M07 A2997
KMYF - San Diego/Mntgmy, California, USA
Distance from station: W 6mi, 10km
Updated: Sat, 29-Apr-2017 5:53pm PDT
Clear
Clear
 Wind from NW
Wind: NW 15 mph , 24 km/h
Temperature: 75°F , 24°C
Dew Point: 18°F , -8°C
Humidity: 11%
Barometer: 29.98 inHg , 1015.2 hPa
Clouds: Clear
Visibility: 10 miles , 16 km
2017/04/30 00:53 KMYF 300053Z 31013KT 10SM CLR 24/M08 A2998 RMK AO2 SLP150 T02441078 $
 
KNKX - Miramar Nas/San, California, USA
Distance from station: WNW 7mi, 11km
Updated: Sat, 29-Apr-2017 5:55pm PDT
Few Clouds
Few Clouds
 Wind from WNW
Wind: WNW 12 mph , 19 km/h
Temperature: 79°F , 26°C
Dew Point: 25°F , -4°C
Humidity: 13%
Barometer: 29.99 inHg , 1015.6 hPa
Clouds: Few Clouds
Visibility: 10 miles , 16 km
Cloud details: Few Clouds 20000 ft
2017/04/30 00:55 KNKX 300055Z 30010KT 10SM FEW200 26/M04 A2999 RMK AO2 SLP148 T02611044 $
KSAN - San Diego, California, USA
Distance from station: WSW 11mi, 17km
Updated: Sat, 29-Apr-2017 5:51pm PDT
Clear
Clear
 Wind from NW
Wind: NW 16 mph , 26 km/h, Gust: 21 mph , 33 km/h
Temperature: 75°F , 24°C
Dew Point: 34°F , 1°C
Humidity: 22%
Barometer: 29.99 inHg , 1015.6 hPa
Clouds: Clear
Visibility: 10 miles , 16 km
2017/04/30 00:51 KSAN 300051Z 31014G18KT 10SM CLR 24/01 A2999 RMK AO2 SLP155 T02440011
 
KNZY - North Island Nas, California, USA
Distance from station: SW 13mi, 22km
Updated: Sat, 29-Apr-2017 5:52pm PDT
Clear
Clear
 Wind from NNW
Wind: NNW 16 mph , 26 km/h
Temperature: 73°F , 23°C
Dew Point: 43°F , 6°C
Humidity: 33%
Barometer: 29.97 inHg , 1014.9 hPa
Clouds: Clear
Visibility: 10 miles , 16 km
2017/04/30 00:52 KNZY 300052Z 33014KT 10SM CLR 23/06 A2997 RMK AO2 SLP150 T02330061 $
KRNM - Ramona, California, USA
Distance from station: NNE 16mi, 26km
Updated: Sat, 29-Apr-2017 5:53pm PDT
Clear
Clear
 Wind from W
Wind: W 15 mph , 24 km/h
Temperature: 73°F , 23°C
Dew Point: 30°F , -1°C
Humidity: 20%
Barometer: 30.00 inHg , 1015.9 hPa
Clouds: Clear
Visibility: 10 miles , 16 km
2017/04/30 00:53 KRNM 300053Z 26013KT 10SM CLR 23/M01 A3000 RMK AO2 SLP144 T02331011 $
 
KSDM - San Diego/Brown, California, USA
Distance from station: S 16mi, 26km
Updated: Sat, 29-Apr-2017 5:53pm PDT
Clear
Clear
 Wind from W
Wind: W 9 mph , 15 km/h
Temperature: 73°F , 23°C
Dew Point: 28°F , -2°C
Humidity: 19%
Barometer: 29.98 inHg , 1015.2 hPa
Clouds: Clear
Visibility: 10 miles , 16 km
2017/04/30 00:53 KSDM 300053Z 28008KT 10SM CLR 23/M02 A2998 RMK AO2 SLP148 T02331022
KNRS - Imperial Beach, California, USA
Distance from station: SSW 18mi, 29km
Updated: Sat, 29-Apr-2017 5:56pm PDT
Clear
Clear
 Wind from WNW
Wind: WNW 9 mph , 15 km/h
Temperature: 72°F , 22°C
Dew Point: 52°F , 11°C
Humidity: 50%
Barometer: 29.99 inHg , 1015.6 hPa
Clouds: Clear
Visibility: 10 miles , 16 km
2017/04/30 00:56 KNRS 300056Z AUTO 29008KT 10SM CLR 22/11 A2999 RMK AO2 SLP155 T02170111 $
 
MMTJ - Tijuana Intl Arp, Mexico
Distance from station: S 20mi, 32km
Updated: Sat, 29-Apr-2017 5:41pm PDT
Clear
Clear
 Wind from WNW
Wind: WNW 13 mph , 20 km/h
Temperature: 75°F , 24°C
Dew Point: 12°F , -11°C
Humidity: 9%
Barometer: 30.00 inHg , 1015.9 hPa
Clouds: Clear
Visibility: 8 miles , 13 km
2017/04/30 00:41 MMTJ 300041Z 30011KT 8SM SKC 24/M11 A3000 RMK FU SE HZY
KCRQ - Carlsbad, California, USA
Distance from station: NW 26mi, 43km
Updated: Sat, 29-Apr-2017 5:53pm PDT
Clear
Clear
 Wind from varies
Wind: varies 7 mph , 11 km/h
Temperature: 73°F , 23°C
Dew Point: 43°F , 6°C
Humidity: 33%
Barometer: 29.98 inHg , 1015.2 hPa
Clouds: Clear
Visibility: 10 miles , 16 km
2017/04/30 00:53 KCRQ 300053Z VRB06KT 10SM CLR 23/06 A2998 RMK AO2 SLP148 T02280056
 
KOKB - Oceanside, California, USA
Distance from station: NW 33mi, 54km
Updated: Sat, 29-Apr-2017 5:52pm PDT
Clear
Clear
 Wind from W
Wind: W 12 mph , 19 km/h, Gust: 21 mph , 33 km/h
Temperature: 73°F , 23°C
Dew Point: 46°F , 8°C
Humidity: 38%
Barometer: 29.96 inHg , 1014.6 hPa
Clouds: Clear
Visibility: 10 miles , 16 km
2017/04/30 00:52 KOKB 300052Z AUTO 28010G18KT 10SM CLR 23/08 A2996 RMK AO2 SLP146 T02280083
KCZZ - Campo, California, USA
Distance from station: ESE 35mi, 56km
Updated: Sat, 29-Apr-2017 5:52pm PDT

 Wind from ENE
Wind: ENE 18 mph , 30 km/h, Gust: 23 mph , 37 km/h
Temperature: 72°F , 22°C
Dew Point: 12°F , -11°C
Humidity: 10%
Barometer: 29.99 inHg , 1015.6 hPa
2017/04/30 00:52 KCZZ 300052Z AUTO 07016G20KT 22/M11 A2999 RMK AO1 SLP128 T02171106
 
KNFG - Camp Pendleton, California, USA
Distance from station: NNW 37mi, 59km
Updated: Sat, 29-Apr-2017 5:55pm PDT
Clear
Clear
 Wind from NW
Wind: NW 8 mph , 13 km/h
Temperature: 79°F , 26°C
Dew Point: 36°F , 2°C
Humidity: 21%
Barometer: 29.96 inHg , 1014.6 hPa
Clouds: Clear
Visibility: 8 miles , 13 km
2017/04/30 00:55 KNFG 300055Z AUTO 32007KT 8SM CLR 26/02 A2996 RMK AO2 SLP144 T02560022 $
KRIV - Riverside/March, California, USA
Distance from station: N 74mi, 119km
Updated: Sat, 29-Apr-2017 5:58pm PDT
Clear
Clear
 Wind from NNW
Wind: NNW 16 mph , 26 km/h, Gust: 25 mph , 41 km/h
Temperature: 81°F , 27°C
Dew Point: 5°F , -15°C
Humidity: 5%
Barometer: 29.97 inHg , 1014.9 hPa
Clouds: Clear
Visibility: 10 miles , 16 km
2017/04/30 00:58 KRIV 300058Z AUTO 33014G22KT 10SM CLR 27/M15 A2997 RMK AO2 SLP137 T02681148
 
KTRM - Thermal/Palm Spg, California, USA
Distance from station: NE 75mi, 121km
Updated: Sat, 29-Apr-2017 5:52pm PDT
Clear
Clear
 Wind from N
Wind: N 10 mph , 17 km/h
Temperature: 88°F , 31°C
Dew Point: 5°F , -15°C
Humidity: 4%
Barometer: 29.91 inHg , 1012.9 hPa
Clouds: Clear
Visibility: 10 miles , 16 km
2017/04/30 00:52 KTRM 300052Z AUTO 01009KT 10SM CLR 31/M15 A2991 RMK AO2 SLP130 T03061150
KPSP - Palm Springs, California, USA
Distance from station: NNE 76mi, 122km
Updated: Sat, 29-Apr-2017 5:53pm PDT
Clear
Clear
 Wind from NNE
Wind: NNE 12 mph , 19 km/h
Temperature: 88°F , 31°C
Dew Point: 7°F , -14°C
Humidity: 4%
Barometer: 29.96 inHg , 1014.6 hPa
Clouds: Clear
Visibility: 10 miles , 16 km
2017/04/30 00:53 KPSP 300053Z 03010KT 10SM CLR 31/M14 A2996 RMK AO2 SLP142 T03061144
 
KSNA - Costa Mesa, California, USA
Distance from station: NW 76mi, 123km
Updated: Sat, 29-Apr-2017 5:53pm PDT
Clear
Clear
 Wind from W
Wind: W 9 mph , 15 km/h
Temperature: 81°F , 27°C
Dew Point: 25°F , -4°C
Humidity: 13%
Barometer: 29.95 inHg , 1014.2 hPa
Clouds: Clear
Visibility: 10 miles , 16 km
2017/04/30 00:53 KSNA 300053Z 27008KT 10SM CLR 27/M04 A2995 RMK AO2 SLP142 T02721044
KNJK - El Centro Naf, California, USA
Distance from station: E 79mi, 127km
Updated: Sat, 29-Apr-2017 5:56pm PDT
Clear
Clear
 Wind from NNW
Wind: NNW 8 mph , 13 km/h
Temperature: 84°F , 29°C
Dew Point: 9°F , -13°C
Humidity: 5%
Barometer: 29.95 inHg , 1014.2 hPa
Clouds: Clear
Visibility: 10 miles , 16 km
2017/04/30 00:56 KNJK 300056Z AUTO 33007KT 10SM CLR 29/M13 A2995 RMK AO2 SLP156 T02941128 $
 
KAJO - Corona Muni, California, USA
Distance from station: NNW 82mi, 132km
Updated: Sat, 29-Apr-2017 5:56pm PDT
Clear
Clear
 Wind from NNE
Wind: NNE 14 mph , 22 km/h, Gust: 23 mph , 37 km/h
Temperature: 84°F , 29°C
Dew Point: 16°F , -9°C
Humidity: 8%
Barometer: 29.95 inHg , 1014.2 hPa
Clouds: Clear
Visibility: 10 miles , 16 km
2017/04/30 00:56 KAJO 300056Z AUTO 02012G20KT 10SM CLR 29/M09 A2995 RMK AO2 SLP147 T02891089